Time;durP1;ratioP1;P1;durP2;ratioP2;P2;SDS_P1;SDS_P2;PMS_P1;PMS_P2;Temp;Humidity;BMP_temperature;BMP_pressure;BME280_temperature;BME280_humidity;BME280_pressure;Samples;Min_cycle;Max_cycle;Signal;HPM_P1;HPM_P2
2022/10/03 00:01:27;;;;;;;5.10;1.10;;;10.90;99.90;10.20;99476;;;;578357;243;24040;-75
2022/10/03 00:04:12;;;;;;;3.83;1.43;;;10.90;99.90;10.20;99473;;;;580493;243;24047;-75
2022/10/03 00:06:55;;;;;;;1.47;0.87;;;10.90;99.90;10.20;99478;;;;578332;240;24078;-77
2022/10/03 00:09:50;;;;;;;1.00;1.00;;;10.90;99.90;10.20;99480;;;;580579;243;24042;-79
2022/10/03 00:12:39;;;;;;;2.93;1.20;;;10.90;99.90;10.30;99485;;;;569868;244;24133;-76
2022/10/03 00:15:16;;;;;;;3.50;1.10;;;10.90;99.90;10.20;99490;;;;575842;243;24023;-75
2022/10/03 00:17:45;;;;;;;3.67;1.40;;;10.90;99.90;10.30;99493;;;;580548;243;24023;-76
2022/10/03 00:20:19;;;;;;;1.80;0.80;;;11.00;99.90;10.30;99484;;;;578811;237;24089;-76
2022/10/03 00:22:52;;;;;;;3.63;0.97;;;11.00;99.90;10.30;99486;;;;580814;243;24011;-77
2022/10/03 00:25:20;;;;;;;1.07;0.93;;;11.00;99.90;10.30;99480;;;;580635;243;24026;-76
2022/10/03 00:28:24;;;;;;;2.67;1.30;;;11.00;99.90;10.30;99481;;;;581914;239;24062;-76
2022/10/03 00:30:58;;;;;;;2.63;1.10;;;11.00;99.90;10.40;99479;;;;578773;243;24042;-76
2022/10/03 00:33:35;;;;;;;0.57;0.57;;;11.00;99.90;10.40;99482;;;;571679;239;24078;-75
2022/10/03 00:36:11;;;;;;;3.30;1.00;;;11.00;99.90;10.40;99471;;;;580233;243;24024;-77
2022/10/03 00:39:07;;;;;;;3.80;1.40;;;11.10;99.90;10.40;99471;;;;580178;243;24043;-77
2022/10/03 00:41:47;;;;;;;2.47;1.30;;;11.10;99.90;10.40;99464;;;;564759;250;24191;-78
2022/10/03 00:44:33;;;;;;;6.57;1.80;;;11.10;99.90;10.40;99478;;;;572283;248;46040;-77
2022/10/03 00:47:29;;;;;;;6.57;1.57;;;11.10;99.90;10.50;99465;;;;580445;243;24019;-78
2022/10/03 00:50:18;;;;;;;3.60;1.20;;;11.10;99.90;10.50;99470;;;;580871;243;24053;-76
2022/10/03 00:53:10;;;;;;;1.97;0.97;;;11.20;99.90;10.50;99468;;;;569873;248;24119;-76
2022/10/03 00:56:02;;;;;;;4.50;0.90;;;11.20;99.90;10.50;99468;;;;579846;243;25048;-75
2022/10/03 00:58:51;;;;;;;1.50;1.37;;;11.20;99.90;10.50;99467;;;;577921;243;24024;-76
2022/10/03 01:01:28;;;;;;;2.27;1.03;;;11.20;99.90;10.60;99466;;;;578205;243;24080;-76
2022/10/03 01:04:20;;;;;;;4.07;1.20;;;11.20;99.90;10.60;99465;;;;580487;243;24074;-76
2022/10/03 01:07:28;;;;;;;0.77;0.77;;;11.20;99.90;10.60;99470;;;;577874;243;24105;-77
2022/10/03 01:10:28;;;;;;;1.83;1.20;;;11.20;99.90;10.60;99459;;;;580022;243;26183;-77
2022/10/03 01:13:17;;;;;;;2.03;0.80;;;11.30;99.90;10.60;99466;;;;588594;239;24040;-76
2022/10/03 01:15:46;;;;;;;6.43;0.80;;;11.30;99.90;10.60;99469;;;;589083;243;23997;-79
2022/10/03 01:18:54;;;;;;;1.33;0.80;;;11.30;99.90;10.60;99461;;;;580846;243;24011;-77
2022/10/03 01:21:37;;;;;;;1.20;1.03;;;11.20;99.90;10.50;99453;;;;589641;243;24011;-82
2022/10/03 01:24:45;;;;;;;1.33;1.00;;;11.20;99.90;10.40;99455;;;;589609;241;24037;-75
2022/10/03 01:27:31;;;;;;;0.70;0.70;;;11.10;99.90;10.30;99460;;;;589615;243;24020;-76
2022/10/03 01:32:53;;;;;;;1.80;0.80;;;10.90;99.90;10.10;99464;;;;578912;245;24019;-76
2022/10/03 01:35:48;;;;;;;3.00;1.10;;;10.80;99.90;10.10;99454;;;;590612;243;24067;-75
2022/10/03 01:38:18;;;;;;;1.00;1.00;;;10.80;99.90;10.20;99461;;;;590681;243;24042;-76
2022/10/03 01:40:47;;;;;;;1.47;1.00;;;10.90;99.90;10.30;99449;;;;571381;236;24051;-83
2022/10/03 01:43:43;;;;;;;3.37;1.40;;;10.90;99.90;10.40;99458;;;;590097;243;24040;-84
2022/10/03 01:46:25;;;;;;;2.10;1.00;;;11.00;99.90;10.50;99455;;;;590274;243;24039;-81
2022/10/03 01:49:22;;;;;;;2.03;1.07;;;11.20;99.90;10.50;99449;;;;571153;236;24032;-82
2022/10/03 01:52:14;;;;;;;0.87;0.87;;;11.10;99.90;10.50;99446;;;;580855;243;24012;-82
2022/10/03 01:54:57;;;;;;;4.40;1.30;;;11.20;99.90;10.50;99453;;;;579866;243;24123;-81
2022/10/03 01:57:39;;;;;;;0.70;0.70;;;11.20;99.90;10.60;99447;;;;580164;243;24018;-76
2022/10/03 02:00:13;;;;;;;1.97;0.80;;;11.20;99.90;10.60;99449;;;;578778;243;24046;-75
2022/10/03 02:03:02;;;;;;;1.97;1.30;;;11.20;99.90;10.60;99454;;;;589433;243;24035;-75
2022/10/03 02:05:37;;;;;;;1.40;0.93;;;11.30;99.90;10.70;99462;;;;578342;243;24062;-74
2022/10/03 02:08:22;;;;;;;0.80;0.80;;;11.30;99.90;10.70;99459;;;;578345;243;24023;-77
2022/10/03 02:11:01;;;;;;;3.33;1.13;;;11.30;99.90;10.70;99462;;;;580124;243;24030;-77
2022/10/03 02:13:38;;;;;;;0.70;0.70;;;11.30;99.90;10.70;99462;;;;580540;243;24029;-76
2022/10/03 02:16:27;;;;;;;2.23;1.03;;;11.20;99.90;10.60;99465;;;;580383;240;24104;-77
2022/10/03 02:18:58;;;;;;;1.23;1.10;;;11.20;99.90;10.60;99476;;;;569836;243;24025;-79
2022/10/03 02:21:27;;;;;;;2.57;0.93;;;11.20;99.90;10.60;99472;;;;588043;235;24056;-75
2022/10/03 02:24:19;;;;;;;5.33;1.20;;;11.20;99.90;10.60;99473;;;;578942;237;24098;-76
2022/10/03 02:27:11;;;;;;;1.50;1.20;;;11.20;99.90;10.60;99477;;;;580320;243;24012;-77
2022/10/03 02:29:51;;;;;;;2.67;0.97;;;11.20;99.90;10.60;99481;;;;589537;243;24021;-77
2022/10/03 02:33:03;;;;;;;1.97;0.97;;;11.20;99.90;10.60;99487;;;;589008;240;24052;-76
2022/10/03 02:35:56;;;;;;;4.00;1.62;;;11.20;99.90;10.60;99488;;;;573237;243;34720;-76
2022/10/03 02:38:48;;;;;;;2.27;1.20;;;11.20;99.90;10.60;99490;;;;578749;243;24035;-74
2022/10/03 02:41:41;;;;;;;2.10;1.30;;;11.20;99.90;10.60;99494;;;;580541;243;24259;-76
2022/10/03 02:44:49;;;;;;;0.90;0.90;;;11.20;99.90;10.60;99490;;;;588541;243;24061;-77
2022/10/03 02:47:54;;;;;;;1.00;0.90;;;11.30;99.90;10.60;99502;;;;590939;242;24053;-80
2022/10/03 02:51:03;;;;;;;1.47;1.37;;;11.20;99.90;10.70;99512;;;;590458;242;24053;-82
2022/10/03 02:53:48;;;;;;;1.30;1.20;;;11.30;99.90;10.70;99508;;;;580552;243;24073;-81
2022/10/03 02:56:47;;;;;;;1.37;1.20;;;11.30;99.90;10.70;99508;;;;581123;243;24023;-79
2022/10/03 02:59:39;;;;;;;2.17;1.33;;;11.30;99.90;10.70;99512;;;;581177;243;24000;-80
2022/10/03 03:02:34;;;;;;;1.67;1.57;;;11.30;99.90;10.70;99502;;;;580665;243;24018;-83
2022/10/03 03:05:11;;;;;;;2.07;1.87;;;11.30;99.90;10.70;99508;;;;580454;243;24036;-78
2022/10/03 03:08:00;;;;;;;1.93;1.80;;;11.30;99.90;10.70;99519;;;;580610;243;24010;-80
2022/10/03 03:11:06;;;;;;;3.60;1.77;;;11.30;99.90;10.70;99521;;;;580923;243;24020;-82
2022/10/03 03:13:47;;;;;;;1.67;1.57;;;11.30;99.90;10.70;99527;;;;580820;243;24023;-83
2022/10/03 03:17:02;;;;;;;2.97;1.83;;;11.30;99.90;10.70;99524;;;;590669;241;24163;-78
2022/10/03 03:20:06;;;;;;;4.53;3.70;;;11.30;99.90;10.60;99533;;;;571741;243;24142;-84
2022/10/03 03:22:58;;;;;;;3.20;2.27;;;11.20;99.90;10.50;99539;;;;592970;241;24059;-82
2022/10/03 03:26:08;;;;;;;7.47;3.07;;;11.20;99.90;10.40;99530;;;;589724;243;24082;-77
2022/10/03 03:28:40;;;;;;;3.13;2.50;;;10.90;99.90;10.30;99534;;;;580649;243;24038;-80
2022/10/03 03:31:07;;;;;;;2.97;2.27;;;10.90;99.90;10.20;99546;;;;579872;243;24061;-83
2022/10/03 03:33:51;;;;;;;4.13;3.00;;;10.90;99.90;10.10;99543;;;;583671;243;24027;-76
2022/10/03 03:36:36;;;;;;;4.00;2.90;;;10.80;99.90;10.10;99547;;;;581421;243;24157;-81
2022/10/03 03:39:53;;;;;;;4.53;2.80;;;10.80;99.90;10.00;99546;;;;590209;241;24132;-77
2022/10/03 03:42:33;;;;;;;6.23;3.20;;;10.70;99.90;9.90;99550;;;;574199;243;24041;-79
2022/10/03 03:45:30;;;;;;;4.53;3.00;;;10.60;99.90;9.90;99553;;;;580500;243;24003;-78
2022/10/03 03:48:38;;;;;;;4.63;3.03;;;10.50;99.90;9.80;99553;;;;580604;243;24032;-80
2022/10/03 03:51:39;;;;;;;3.43;3.10;;;10.50;99.90;9.80;99555;;;;578712;243;24107;-81
2022/10/03 03:54:20;;;;;;;3.70;2.90;;;10.40;99.90;9.70;99556;;;;571443;246;24113;-82
2022/10/03 03:57:09;;;;;;;3.70;3.17;;;10.40;99.90;9.70;99560;;;;576030;246;24150;-81
2022/10/03 03:59:55;;;;;;;3.47;3.10;;;10.30;99.90;9.60;99566;;;;578241;247;24111;-79
2022/10/03 04:02:44;;;;;;;3.97;2.90;;;10.30;99.90;9.60;99568;;;;580996;243;24012;-79
2022/10/03 04:05:33;;;;;;;6.00;2.90;;;10.30;99.90;9.70;99578;;;;579047;243;24074;-81
2022/10/03 04:08:23;;;;;;;3.37;2.73;;;10.40;99.90;9.80;99588;;;;578728;243;24038;-81
2022/10/03 04:11:21;;;;;;;5.10;3.40;;;10.40;99.90;9.80;99594;;;;581053;243;24030;-75
2022/10/03 04:14:29;;;;;;;4.23;3.67;;;10.50;99.90;9.90;99596;;;;580481;243;24044;-76
2022/10/03 04:20:12;;;;;;;15.57;3.97;;;10.60;99.90;10.00;99603;;;;589801;242;24038;-74
2022/10/03 04:23:08;;;;;;;4.50;3.37;;;10.70;99.90;10.10;99607;;;;580334;243;24051;-75
2022/10/03 04:25:38;;;;;;;8.07;3.93;;;10.70;99.90;10.20;99608;;;;580026;243;24019;-76
2022/10/03 04:28:31;;;;;;;3.60;3.30;;;10.80;99.90;10.20;99610;;;;580770;243;24093;-77
2022/10/03 04:30:56;;;;;;;6.53;3.30;;;10.90;99.90;10.30;99612;;;;580723;243;24068;-76
2022/10/03 04:33:26;;;;;;;4.33;3.70;;;10.90;99.90;10.30;99616;;;;580846;241;24028;-77
2022/10/03 04:36:21;;;;;;;6.63;3.23;;;11.00;99.90;10.40;99621;;;;580065;243;24064;-77
2022/10/03 04:38:58;;;;;;;3.83;2.20;;;11.00;99.90;10.40;99617;;;;589180;243;24012;-80
2022/10/03 04:41:54;;;;;;;5.70;2.97;;;11.10;99.90;10.40;99622;;;;580603;243;24015;-79
2022/10/03 04:44:39;;;;;;;3.37;2.73;;;11.10;99.90;10.50;99628;;;;589424;243;24028;-83
2022/10/03 04:47:22;;;;;;;4.27;3.53;;;11.10;99.90;10.50;99627;;;;580119;243;24049;-84
2022/10/03 04:49:58;;;;;;;2.90;2.70;;;11.20;99.90;10.50;99633;;;;589392;243;24053;-83
2022/10/03 04:52:47;;;;;;;4.53;3.43;;;11.20;99.90;10.60;99642;;;;580574;243;24028;-82
2022/10/03 04:55:34;;;;;;;4.13;3.37;;;11.20;99.90;10.60;99639;;;;588138;243;24070;-85
2022/10/03 04:58:07;;;;;;;3.17;2.87;;;11.30;99.90;10.60;99647;;;;579881;243;24064;-81
2022/10/03 05:00:57;;;;;;;3.20;2.80;;;11.30;99.90;10.60;99651;;;;590182;241;24038;-83
2022/10/03 05:03:46;;;;;;;6.50;3.67;;;11.30;99.90;10.70;99659;;;;583018;241;24030;-84
2022/10/03 05:07:10;;;;;;;3.83;2.97;;;11.30;99.90;10.70;99659;;;;576937;243;24128;-81
2022/10/03 05:09:55;;;;;;;3.83;3.40;;;11.40;99.90;10.70;99657;;;;590972;241;24014;-83
2022/10/03 05:12:35;;;;;;;4.17;3.50;;;11.40;99.90;10.70;99660;;;;584375;239;24026;-85
2022/10/03 05:15:27;;;;;;;4.77;3.73;;;11.40;99.90;10.70;99662;;;;581347;243;24023;-83
2022/10/03 05:18:01;;;;;;;6.97;4.50;;;11.30;99.90;10.70;99663;;;;580087;243;24026;-87
2022/10/03 05:20:37;;;;;;;5.07;4.57;;;11.30;99.90;10.70;99670;;;;580602;243;24108;-83
2022/10/03 05:23:14;;;;;;;4.97;4.37;;;11.30;99.90;10.70;99684;;;;580124;243;24118;-78
2022/10/03 05:26:04;;;;;;;7.17;4.40;;;11.40;99.90;10.70;99679;;;;580178;243;24044;-82
2022/10/03 05:28:44;;;;;;;4.13;3.73;;;11.40;99.90;10.70;99676;;;;589765;243;24023;-79
2022/10/03 05:31:47;;;;;;;7.30;4.60;;;11.30;99.90;10.80;99691;;;;580324;243;24028;-82
2022/10/03 05:34:25;;;;;;;5.27;4.57;;;11.40;99.90;10.80;99691;;;;589547;243;24029;-80
2022/10/03 05:36:53;;;;;;;7.33;4.47;;;11.40;99.90;10.80;99710;;;;582971;239;24030;-85
2022/10/03 05:39:30;;;;;;;5.63;4.00;;;11.50;99.90;10.90;99699;;;;580390;243;24022;-82
2022/10/03 05:42:06;;;;;;;5.43;3.57;;;11.50;99.90;10.90;99714;;;;580643;243;24034;-81
2022/10/03 05:44:40;;;;;;;4.10;3.67;;;11.60;99.90;10.90;99709;;;;589283;243;24011;-81
2022/10/03 05:47:43;;;;;;;4.17;3.57;;;11.60;99.90;11.00;99714;;;;580806;243;24025;-84
2022/10/03 05:49:54;;;;;;;5.63;3.57;;;11.60;99.90;11.10;99729;;;;588166;243;24020;-84
2022/10/03 05:52:33;;;;;;;4.87;3.63;;;11.70;99.90;11.10;99738;;;;578366;246;24091;-83
2022/10/03 05:55:45;;;;;;;4.50;3.83;;;11.80;99.90;11.20;99731;;;;583424;243;24124;-83
2022/10/03 05:58:30;;;;;;;9.60;3.43;;;11.80;99.90;11.20;99738;;;;581644;243;24084;-83
2022/10/03 06:01:14;;;;;;;11.70;3.50;;;11.80;99.90;11.20;99751;;;;584527;243;24030;-82
2022/10/03 06:04:00;;;;;;;3.87;3.20;;;11.80;99.90;11.20;99751;;;;567116;248;27399;-83
2022/10/03 06:06:43;;;;;;;5.60;3.73;;;11.90;99.90;11.20;99758;;;;568133;242;24110;-81
2022/10/03 06:09:16;;;;;;;4.93;3.53;;;11.90;99.90;11.30;99759;;;;584482;243;24118;-81
2022/10/03 06:11:56;;;;;;;6.80;3.43;;;11.90;99.90;11.30;99764;;;;580830;243;24076;-81
2022/10/03 06:14:43;;;;;;;7.17;2.90;;;12.00;99.90;11.30;99761;;;;590127;239;25119;-81
2022/10/03 06:17:17;;;;;;;5.23;2.87;;;12.00;99.90;11.30;99782;;;;599311;239;24129;-81
2022/10/03 06:19:48;;;;;;;3.93;2.93;;;12.00;99.90;11.40;99783;;;;590298;238;24037;-81
2022/10/03 06:22:27;;;;;;;5.70;2.63;;;12.00;99.90;11.30;99789;;;;592088;239;24050;-82
2022/10/03 06:25:14;;;;;;;2.83;2.27;;;12.00;99.90;11.40;99803;;;;590861;239;24038;-82
2022/10/03 06:28:01;;;;;;;2.50;2.33;;;12.00;99.90;11.50;99800;;;;591693;239;24051;-81
2022/10/03 06:31:10;;;;;;;4.20;3.60;;;12.10;99.90;11.70;99800;;;;587400;239;24026;-81
2022/10/03 06:34:25;;;;;;;4.43;3.57;;;12.30;99.90;12.10;99806;;;;594454;239;24100;-82
2022/10/03 06:37:42;;;;;;;6.20;2.97;;;12.60;99.90;12.20;99802;;;;602066;235;24083;-82
2022/10/03 06:40:50;;;;;;;7.90;4.13;;;12.80;99.90;12.50;99828;;;;612034;235;24039;-82
2022/10/03 06:43:37;;;;;;;4.53;3.60;;;13.00;99.90;13.00;99812;;;;602052;235;23998;-82
2022/10/03 06:46:44;;;;;;;3.47;3.00;;;13.40;99.90;14.40;99836;;;;587155;239;24127;-81
2022/10/03 06:49:59;;;;;;;5.80;2.27;;;14.60;99.90;15.70;99834;;;;587633;239;24043;-81
2022/10/03 06:52:47;;;;;;;3.07;2.40;;;15.80;99.90;18.00;99836;;;;600652;239;24052;-82
2022/10/03 06:56:03;;;;;;;3.83;2.43;;;19.50;99.90;19.90;99856;;;;597703;238;25149;-82
2022/10/03 06:58:37;;;;;;;3.13;1.57;;;19.70;99.90;21.70;99857;;;;596433;238;23013;-82
2022/10/03 07:01:12;;;;;;;2.57;1.70;;;22.90;99.90;22.90;99875;;;;589675;238;23097;-82
2022/10/03 07:04:23;;;;;;;1.17;1.13;;;22.80;99.90;24.50;99883;;;;596428;238;23992;-82
2022/10/03 07:07:28;;;;;;;2.80;1.00;;;25.90;85.70;25.60;99897;;;;595882;238;24035;-82
2022/10/03 07:10:33;;;;;;;2.23;1.17;;;25.70;85.60;26.00;99896;;;;596455;238;23035;-82
2022/10/03 07:13:05;;;;;;;4.63;0.90;;;26.40;76.80;26.80;99900;;;;596191;238;23017;-81
2022/10/03 07:16:27;;;;;;;2.00;1.10;;;27.10;73.70;27.50;99918;;;;592945;238;23040;-83
2022/10/03 07:19:12;;;;;;;0.70;0.70;;;27.80;69.20;27.30;99909;;;;595795;238;24061;-82
2022/10/03 07:22:05;;;;;;;0.93;0.93;;;27.90;66.90;26.10;99907;;;;595358;238;24013;-83
2022/10/03 07:24:42;;;;;;;1.23;1.00;;;27.10;66.30;25.40;99923;;;;595953;238;23049;-83
2022/10/03 07:27:20;;;;;;;1.50;0.97;;;26.30;68.10;23.80;99919;;;;592663;238;24016;-82
2022/10/03 07:29:54;;;;;;;2.20;1.03;;;25.10;69.80;22.00;99936;;;;593215;238;24028;-82
2022/10/03 07:32:26;;;;;;;1.20;1.07;;;22.10;78.10;20.60;99924;;;;596695;237;24057;-81
2022/10/03 07:38:56;;;;;;;10.40;1.73;;;20.80;82.60;19.50;99927;;;;594959;238;23997;-83
2022/10/03 07:41:21;;;;;;;1.27;0.97;;;19.70;87.60;18.10;99934;;;;595077;238;24091;-81
2022/10/03 07:44:17;;;;;;;1.40;0.93;;;18.90;91.00;17.50;99932;;;;596566;238;23999;-82
2022/10/03 07:46:59;;;;;;;1.00;0.90;;;18.30;92.50;17.10;99925;;;;595184;238;24043;-85
2022/10/03 07:50:13;;;;;;;1.50;1.40;;;17.80;94.60;16.80;99926;;;;594827;238;24069;-84
2022/10/03 07:52:41;;;;;;;3.10;1.13;;;17.40;96.40;16.40;99943;;;;596820;238;24006;-81
2022/10/03 07:55:33;;;;;;;1.03;1.00;;;17.00;99.00;16.00;99936;;;;606132;237;24005;-82
2022/10/03 07:58:28;;;;;;;3.10;2.07;;;16.40;99.90;15.80;99940;;;;596441;238;24094;-80
2022/10/03 08:01:17;;;;;;;1.63;1.40;;;16.40;99.90;15.50;99951;;;;596708;238;23996;-81
2022/10/03 08:04:25;;;;;;;2.80;1.67;;;16.10;99.90;15.20;99954;;;;595737;238;24046;-83
2022/10/03 08:07:26;;;;;;;1.97;1.30;;;15.80;99.90;15.00;99961;;;;590121;238;23991;-81
2022/10/03 08:10:20;;;;;;;1.93;1.20;;;15.60;99.90;14.80;99976;;;;574976;243;24084;-80
2022/10/03 08:13:03;;;;;;;4.33;1.80;;;15.40;99.90;14.50;99974;;;;562384;250;24099;-81
2022/10/03 08:15:39;;;;;;;3.20;1.27;;;15.10;99.90;14.30;99993;;;;590401;235;24018;-80
2022/10/03 08:18:29;;;;;;;0.87;0.80;;;14.90;99.90;14.20;99997;;;;590323;239;24018;-83
2022/10/03 08:21:02;;;;;;;2.13;0.80;;;14.80;99.90;14.10;99993;;;;611597;235;23996;-79
2022/10/03 08:24:04;;;;;;;2.23;0.80;;;14.70;99.90;14.00;99996;;;;599183;235;24048;-82
2022/10/03 08:26:50;;;;;;;1.37;1.00;;;14.60;99.90;13.90;100015;;;;605125;237;24013;-82
2022/10/03 08:29:45;;;;;;;1.20;0.80;;;14.50;99.90;14.10;100001;;;;592101;239;24017;-83
2022/10/03 08:32:48;;;;;;;1.70;1.03;;;14.60;99.90;14.50;100008;;;;591384;239;24072;-83
2022/10/03 08:35:59;;;;;;;0.83;0.73;;;15.00;99.90;14.50;100009;;;;596775;236;24041;-82
2022/10/03 08:38:48;;;;;;;1.03;0.87;;;15.10;99.90;14.40;100025;;;;600127;235;24015;-81
2022/10/03 08:41:43;;;;;;;2.63;1.17;;;15.00;99.90;14.40;100037;;;;610630;235;24087;-81
2022/10/03 08:44:35;;;;;;;1.10;1.00;;;15.00;99.90;13.90;100029;;;;611383;233;24058;-82
2022/10/03 08:47:40;;;;;;;1.13;1.00;;;13.90;99.90;13.20;100028;;;;602634;234;24046;-82
2022/10/03 08:50:35;;;;;;;1.60;0.90;;;13.50;99.90;12.80;100047;;;;599772;236;24006;-83
2022/10/03 08:53:30;;;;;;;2.30;1.30;;;13.40;99.90;12.60;100045;;;;596615;238;24014;-82
2022/10/03 08:56:44;;;;;;;1.70;1.17;;;13.20;99.90;12.60;100053;;;;591032;239;24061;-81
2022/10/03 08:59:48;;;;;;;1.70;1.30;;;13.10;99.90;12.70;100062;;;;586900;239;24032;-81
2022/10/03 09:02:56;;;;;;;1.73;1.60;;;13.10;99.90;12.80;100051;;;;601739;235;24017;-81
2022/10/03 09:06:09;;;;;;;1.13;1.03;;;13.20;99.90;13.00;100057;;;;598884;236;23999;-81
2022/10/03 09:09:05;;;;;;;1.27;1.10;;;13.50;99.90;13.30;100060;;;;597669;235;23994;-81
2022/10/03 09:12:13;;;;;;;3.43;1.60;;;14.40;99.90;13.90;100059;;;;603746;235;24007;-79
2022/10/03 09:15:10;;;;;;;1.40;1.30;;;14.30;99.90;14.40;100069;;;;599049;236;24030;-82
2022/10/03 09:17:43;;;;;;;1.63;1.40;;;14.90;99.90;14.50;100069;;;;597775;235;24026;-83
2022/10/03 09:20:38;;;;;;;3.20;1.37;;;15.10;99.90;15.20;100066;;;;597850;236;24023;-81
2022/10/03 09:23:27;;;;;;;1.70;1.60;;;15.70;99.90;16.10;100068;;;;594845;239;24052;-81
2022/10/03 09:26:19;;;;;;;4.83;1.23;;;16.50;99.90;17.20;100070;;;;601292;239;24013;-83
2022/10/03 09:29:20;;;;;;;1.40;1.30;;;17.60;99.90;17.80;100077;;;;588238;239;24051;-82
2022/10/03 09:32:25;;;;;;;2.60;1.17;;;18.40;99.90;18.30;100088;;;;609010;236;24026;-83
2022/10/03 09:35:10;;;;;;;1.00;1.00;;;19.00;99.90;18.90;100082;;;;587067;241;24054;-82
2022/10/03 09:38:31;;;;;;;1.77;0.97;;;19.80;99.90;18.60;100084;;;;598523;239;24075;-83
2022/10/03 09:41:23;;;;;;;1.30;1.00;;;19.70;99.90;18.40;100081;;;;601333;238;23981;-81
2022/10/03 09:44:09;;;;;;;2.90;0.97;;;19.40;99.90;19.40;100093;;;;601802;235;23043;-83
2022/10/03 09:47:26;;;;;;;1.13;1.10;;;21.30;99.90;20.70;100089;;;;595497;236;24096;-80
2022/10/03 09:50:20;;;;;;;3.70;1.37;;;21.20;99.90;21.50;100089;;;;597046;235;24029;-82
2022/10/03 09:53:07;;;;;;;2.33;1.30;;;22.30;99.90;22.80;100110;;;;589056;239;24022;-83
2022/10/03 09:56:00;;;;;;;3.40;1.43;;;24.10;94.00;22.90;100096;;;;596220;236;24032;-83
2022/10/03 09:58:34;;;;;;;3.10;1.30;;;24.10;93.90;22.50;100101;;;;601256;234;23071;-82
2022/10/03 10:01:39;;;;;;;1.27;1.17;;;23.80;92.40;21.60;100081;;;;603215;235;23997;-81
2022/10/03 10:04:38;;;;;;;4.20;1.43;;;23.10;92.60;21.40;100098;;;;598093;235;24042;-83
2022/10/03 10:07:30;;;;;;;2.83;1.70;;;22.70;94.30;20.90;100100;;;;594573;236;34714;-82
2022/10/03 10:10:13;;;;;;;2.83;1.40;;;22.20;94.20;19.90;100100;;;;584146;241;24094;-83
2022/10/03 10:13:26;;;;;;;1.00;0.93;;;21.30;93.90;19.10;100092;;;;598590;235;23023;-83
2022/10/03 10:16:08;;;;;;;2.73;1.07;;;20.30;94.90;18.10;100098;;;;597993;235;23059;-82
2022/10/03 10:18:39;;;;;;;1.30;1.20;;;19.30;95.40;17.40;100115;;;;601301;235;24061;-82
2022/10/03 10:21:28;;;;;;;1.33;1.20;;;18.40;97.00;16.90;100108;;;;610430;235;24132;-84
2022/10/03 10:24:11;;;;;;;3.67;1.37;;;17.30;99.90;16.40;100113;;;;601722;235;24000;-83
2022/10/03 10:27:22;;;;;;;1.40;1.30;;;17.20;99.90;16.00;100111;;;;601473;235;24047;-80
2022/10/03 10:30:26;;;;;;;3.47;1.33;;;16.80;99.90;15.50;100132;;;;601945;235;23983;-82
2022/10/03 10:33:10;;;;;;;2.10;1.40;;;16.20;99.90;15.00;100140;;;;603784;235;24001;-82
2022/10/03 10:36:20;;;;;;;1.20;1.10;;;15.80;99.90;14.30;100137;;;;598927;236;24037;-82
2022/10/03 10:39:38;;;;;;;2.67;1.30;;;14.20;99.90;13.50;100145;;;;597293;235;24042;-82
2022/10/03 10:42:26;;;;;;;1.07;0.97;;;14.10;99.90;13.10;100147;;;;603678;235;23996;-81
2022/10/03 10:45:21;;;;;;;1.67;0.93;;;13.70;99.90;13.00;100142;;;;607972;236;24070;-83
2022/10/03 10:48:29;;;;;;;2.77;1.13;;;13.50;99.90;12.80;100147;;;;597354;238;24038;-82
2022/10/03 10:51:28;;;;;;;1.30;0.90;;;13.30;99.90;12.70;100154;;;;603455;235;24031;-84
2022/10/03 10:54:22;;;;;;;1.67;0.97;;;13.20;99.90;12.70;100153;;;;598908;236;24098;-83
2022/10/03 10:57:02;;;;;;;1.30;1.20;;;13.10;99.90;12.70;100152;;;;594832;241;24105;-83
2022/10/03 11:00:04;;;;;;;1.33;1.23;;;13.20;99.90;12.50;100156;;;;586252;239;24022;-83
2022/10/03 11:02:49;;;;;;;1.10;1.00;;;13.00;99.90;12.50;100166;;;;592459;239;24043;-82
2022/10/03 11:06:03;;;;;;;1.20;1.10;;;12.90;99.90;12.40;100151;;;;601913;235;23995;-83
2022/10/03 11:09:27;;;;;;;2.20;1.37;;;12.90;99.90;12.40;100156;;;;599232;234;24007;-82
2022/10/03 11:12:15;;;;;;;2.50;1.10;;;12.90;99.90;12.40;100168;;;;602900;235;24004;-82
2022/10/03 11:15:39;;;;;;;1.00;1.00;;;12.90;99.90;12.30;100159;;;;611787;235;24022;-83
2022/10/03 11:18:40;;;;;;;3.60;1.17;;;12.90;99.90;12.40;100147;;;;602696;235;24008;-82
2022/10/03 11:21:33;;;;;;;4.13;1.20;;;13.20;99.90;12.60;100147;;;;600596;236;24082;-84
2022/10/03 11:24:22;;;;;;;2.20;1.07;;;13.20;99.90;12.70;100154;;;;584886;241;24029;-84
2022/10/03 11:27:11;;;;;;;1.20;1.10;;;13.40;99.90;13.00;100164;;;;595612;235;34748;-84
2022/10/03 11:30:03;;;;;;;3.77;0.80;;;13.60;99.90;13.10;100142;;;;610887;235;24041;-83
2022/10/03 11:33:11;;;;;;;2.00;1.33;;;13.80;99.90;13.40;100154;;;;602745;235;23994;-85
2022/10/03 11:36:10;;;;;;;1.10;1.00;;;13.90;99.90;13.30;100149;;;;602517;235;24000;-83
2022/10/03 11:38:47;;;;;;;1.07;1.07;;;13.90;99.90;13.10;100153;;;;611916;235;24116;-83
2022/10/03 11:41:21;;;;;;;1.63;1.50;;;13.70;99.90;13.00;100165;;;;601689;235;24013;-84
2022/10/03 11:44:31;;;;;;;3.20;1.57;;;13.70;99.90;13.10;100170;;;;610833;235;24034;-85
2022/10/03 11:47:07;;;;;;;4.20;1.20;;;13.70;99.90;13.00;100176;;;;601969;235;24014;-83
2022/10/03 11:50:24;;;;;;;3.70;1.30;;;13.70;99.90;12.90;100175;;;;601787;235;24005;-83
2022/10/03 11:53:23;;;;;;;1.83;1.33;;;13.50;99.90;12.70;100176;;;;598026;235;23999;-84
2022/10/03 11:55:53;;;;;;;1.53;1.43;;;13.30;99.90;12.70;100181;;;;611530;235;23991;-82
2022/10/03 11:58:40;;;;;;;1.33;1.23;;;13.30;99.90;12.60;100181;;;;602022;235;23999;-83
2022/10/03 12:01:36;;;;;;;3.17;1.40;;;13.20;99.90;12.60;100179;;;;599918;236;24101;-82
2022/10/03 12:04:15;;;;;;;3.17;1.83;;;13.20;99.90;12.60;100177;;;;587344;241;24076;-85
2022/10/03 12:10:07;;;;;;;1.23;1.13;;;13.30;99.90;12.80;100181;;;;612100;235;24040;-84
2022/10/03 12:12:48;;;;;;;2.20;1.50;;;13.50;99.90;12.90;100176;;;;595473;235;24001;-84
2022/10/03 12:15:49;;;;;;;5.17;1.50;;;13.50;99.90;12.90;100180;;;;599799;236;24011;-84
2022/10/03 12:18:21;;;;;;;2.43;1.00;;;13.50;99.90;12.70;100185;;;;588090;239;24035;-84
2022/10/03 12:21:04;;;;;;;1.80;1.10;;;13.40;99.90;12.60;100181;;;;587059;239;25127;-84
2022/10/03 12:23:50;;;;;;;2.03;1.20;;;13.30;99.90;12.60;100185;;;;603814;235;24115;-84
2022/10/03 12:26:14;;;;;;;1.90;1.10;;;13.20;99.90;12.50;100179;;;;600731;235;23996;-85
2022/10/03 12:28:43;;;;;;;2.00;1.23;;;13.20;99.90;12.40;100181;;;;591047;239;24112;-84
2022/10/03 12:31:23;;;;;;;1.10;1.10;;;13.10;99.90;12.40;100181;;;;591112;239;24048;-84
2022/10/03 12:34:20;;;;;;;2.70;1.50;;;13.00;99.90;12.40;100183;;;;611409;235;24001;-84
2022/10/03 12:37:10;;;;;;;2.97;1.30;;;13.00;99.90;12.70;100190;;;;599701;236;24050;-83
2022/10/03 12:40:04;;;;;;;3.63;1.30;;;13.30;99.90;13.20;100184;;;;583737;241;24046;-83
2022/10/03 12:42:44;;;;;;;1.57;1.20;;;13.70;99.90;13.60;100178;;;;598040;235;24037;-83
2022/10/03 12:45:31;;;;;;;1.55;1.40;;;14.60;99.90;14.00;100181;;;;582220;235;35046;-82
2022/10/03 12:48:18;;;;;;;0.90;0.90;;;14.50;99.90;14.30;100185;;;;611826;235;24045;-83
2022/10/03 12:50:54;;;;;;;0.87;0.70;;;14.90;99.90;14.30;100201;;;;611498;235;24019;-83
2022/10/03 12:53:19;;;;;;;1.00;1.00;;;15.00;99.90;14.20;100186;;;;599833;236;24054;-82
2022/10/03 12:55:53;;;;;;;1.33;1.30;;;14.90;99.90;14.10;100189;;;;592216;239;24022;-83
2022/10/03 12:58:57;;;;;;;1.63;1.30;;;14.80;99.90;14.00;100186;;;;599386;239;24148;-83
2022/10/03 13:01:53;;;;;;;2.63;1.03;;;14.60;99.90;14.00;100187;;;;611376;235;24007;-83
2022/10/03 13:04:58;;;;;;;1.33;1.30;;;14.60;99.90;13.90;100185;;;;597285;240;24044;-84
2022/10/03 13:07:52;;;;;;;0.93;0.93;;;14.50;99.90;13.60;100197;;;;610312;235;24006;-83
2022/10/03 13:10:26;;;;;;;1.10;1.10;;;14.30;99.90;13.50;100183;;;;611263;234;24036;-82